AirNav   Air Wisconsin Up To $57,000 Bonus
 
 1785 users online  

PA38 Highlands Hospital Heliport
Connellsville, Pennsylvania, USA

GOING TO CONNELLSVILLE?


FAA INFORMATION EFFECTIVE 02 JANUARY 2020

Location

FAA Identifier: PA38
Lat/Long: 40-01-28.7020N 079-34-34.2385W
40-01.478367N 079-34.570642W
40.0246394,-79.5761774
(estimated)
Elevation: 1062 ft. / 324 m (estimated)
From city: 1 mile NE of CONNELLSVILLE, PA
Time zone: UTC -5 (UTC -4 during Daylight Saving Time)
Zip code: 15425

Heliport Operations

Heliport use: Private use. Permission required prior to landing
Activation date: 09/2017
Control tower: no
ARTCC: CLEVELAND CENTER
FSS: ALTOONA FLIGHT SERVICE STATION
Attendance: 
Wind indicator: lighted
Segmented circle: no

Heliport Communications

WX AWOS-3 at VVS (5 nm SW): 133.325 (724-626-8745)
WX AWOS-3 at FWQ (16 nm NW): 118.475 (724-379-5815)
WX AWOS-3 at LBE (17 nm NE): 118.375 (724-539-0671)

Nearby radio navigation aids

VOR radial/distance  VOR name  Freq  Var
IHDr293/10.5INDIAN HEAD VORTAC108.2006W
AGCr135/26.2ALLEGHENY VOR/DME110.0009W
MGWr030/31.0MORGANTOWN VOR/DME111.6005W
JSTr249/38.3JOHNSTOWN VOR/DME113.0006W

 
NDB name  Hdg/Dist  Freq  Var  ID
CAMOR050/11.529908WVV ...- ...-
STOYSTOWN273/30.520910WSYS ... -.-- ...

Heliport Services

Runway Information

Helipad H1

Dimensions: 40 x 40 ft. / 12 x 12 m
Surface: asphalt
Runway edge lights: PERI
Latitude: 40-01.478367N
Longitude: 079-34.570642W
Elevation: 1062.0 ft.
Traffic pattern: leftleft
Touchdown point: yes, no lightsno

Heliport Ownership and Management from official FAA records

Ownership: Privately-owned
Owner: HIGHLANDS HOSPITAL
401 EAST MURPHY AVE
CONNELLSVILLE, PA 15425
Phone (724) 628-1500
Manager: TOM DOHEY
401 EAST MURPHY AVE
CONNELLSVILLE, PA 15425
Phone (724) 626-2226

Additional Remarks

TLOF 40X40 FT, FATO 70X70 FT.
INGRESS/EGRESS 138/318.
FOR CD CTC CLARKSBURG APCH AT 304-842-2011, WHEN APCH CLSD CTC CLEVELAND ARTCC AT 440-774-0490.

Instrument Procedures

There are no published instrument procedures at PA38.

Some nearby airports with instrument procedures:

KVVS - Joseph A Hardy Connellsville Airport (5 nm SW)
KFWQ - Rostraver Airport (16 nm NW)
KLBE - Arnold Palmer Regional Airport (17 nm NE)
G05 - Finleyville Airpark (24 nm NW)
KAGC - Allegheny County Airport (26 nm NW)
 
Loc | Ops | Rwys | IFR | FBO | Links
Com | Nav | Svcs | Stats | Notes
Aerial photo
No photo
 
Airport distance calculator
Flying to Highlands Hospital Heliport? Find the distance to fly.

From to PA38

Sunrise and sunset
Times for 21-Jan-2020
 Local
(UTC-5)
 Zulu
(UTC)
Morning civil twilight07:0712:07
Sunrise07:3612:36
Sunset17:2322:23
Evening civil twilight17:5222:52

Current date and time
Zulu (UTC)  21-Jan-2020 14:19:55
Local (UTC-5)  21-Jan-2020 09:19:55
 
METAR
KP53 
16nm NW 
211356Z AUTO 20007KT M13/M16 A3037 RMK AO1 SLP298 T11281156
KLBE 
17nm NE 
211351Z 21006KT 7SM -SN OVC032 M07/M09 A3053
KAGC 
25nm NW 
211353Z 31004KT 10SM OVC032 M07/M11 A3052 RMK AO2 SLP363 T10671111
K2G9 
26nm E 
211355Z AUTO 28004KT 3SM -SN OVC021 M10/M12 A3042 RMK AO2
KMGW 
27nm SW 
211353Z 32003KT 8SM -SN FEW019 OVC031 M07/M10 A3055 RMK AO2 SNE50B51 SLP365 P0000 T10671100
K2G4 
29nm S 
211355Z AUTO 32003KT 1 1/4SM BKN006 BKN014 M12/M13 A3036 RMK AO1
KAFJ 
32nm W 
211356Z AUTO 33004KT 7SM OVC032 M07/M09 A3058 RMK AO2 SLP374 T10671089 PWINO FZRANO $
TAF
KLBE 
17nm NE 
211122Z 2112/2212 32003KT P6SM -SHSN BKN025 FM211500 30003KT P6SM BKN035 FM220200 27003KT P6SM SKC
NOTAMs
Click for the latest NOTAMs
NOTAMs are issued by the DoD/FAA and will open in a separate window not controlled by AirNav.

 

 
 

Would you like to see your business listed on this page?

 If your business provides an interesting product or service to pilots, flight crews, aircraft, or users of the Highlands Hospital Heliport, you should consider listing it here.  To start the listing process, click on the button below
 
Add a business
 

Other Pages about Highlands Hospital Heliport

Update a link
 
Copyright © AirNav, LLC. All rights reserved. Privacy Policy  Contact